Time;durP1;ratioP1;P1;durP2;ratioP2;P2;SDS_P1;SDS_P2;PMS_P1;PMS_P2;Temp;Humidity;BMP_temperature;BMP_pressure;BME280_temperature;BME280_humidity;BME280_pressure;Samples;Min_cycle;Max_cycle;Signal;HPM_P1;HPM_P2
2023/07/30 00:01:00;;;;;;;9.07;2.20;;;20.60;60.00;;;;;;5079090;28;20036;-66
2023/07/30 00:03:26;;;;;;;6.80;2.05;;;20.50;60.00;;;;;;5082227;28;20495;-67
2023/07/30 00:05:55;;;;;;;10.32;2.45;;;20.50;60.20;;;;;;5082871;28;20058;-67
2023/07/30 00:08:22;;;;;;;8.82;2.03;;;20.40;60.20;;;;;;5066325;28;20066;-68
2023/07/30 00:10:48;;;;;;;9.57;2.53;;;20.50;60.60;;;;;;5082009;28;20051;-69
2023/07/30 00:13:15;;;;;;;10.20;2.67;;;20.40;60.60;;;;;;5082747;28;20166;-68
2023/07/30 00:15:40;;;;;;;7.50;1.60;;;20.40;60.80;;;;;;5081588;28;20063;-66
2023/07/30 00:18:06;;;;;;;7.97;2.55;;;20.40;61.00;;;;;;5081071;28;20060;-65
2023/07/30 00:20:35;;;;;;;5.63;1.63;;;20.30;61.00;;;;;;5082663;28;20437;-66
2023/07/30 00:23:01;;;;;;;8.05;2.22;;;20.30;61.20;;;;;;5078262;28;20499;-65
2023/07/30 00:25:26;;;;;;;13.82;2.92;;;20.30;61.30;;;;;;5082075;28;20036;-65
2023/07/30 00:27:52;;;;;;;6.22;1.83;;;20.20;61.20;;;;;;5081343;28;20044;-66
2023/07/30 00:30:18;;;;;;;9.55;2.72;;;20.20;61.40;;;;;;5082110;28;20135;-66
2023/07/30 00:32:45;;;;;;;6.95;2.28;;;20.20;61.40;;;;;;5078283;28;20059;-67
2023/07/30 00:35:11;;;;;;;6.68;2.35;;;20.20;61.50;;;;;;5081392;28;20067;-67
2023/07/30 00:37:37;;;;;;;6.03;1.70;;;20.10;61.40;;;;;;5080069;28;20138;-67
2023/07/30 00:40:04;;;;;;;6.88;1.70;;;20.10;61.60;;;;;;5085184;28;20392;-67
2023/07/30 00:42:30;;;;;;;6.93;2.28;;;20.10;61.70;;;;;;5080077;28;20021;-67
2023/07/30 00:44:56;;;;;;;10.52;2.47;;;20.10;61.80;;;;;;5080247;28;20024;-67
2023/07/30 00:47:24;;;;;;;6.55;1.90;;;20.00;61.70;;;;;;5076889;28;20051;-67
2023/07/30 00:49:52;;;;;;;9.00;2.17;;;20.00;61.80;;;;;;5077413;28;20028;-67
2023/07/30 00:52:20;;;;;;;8.00;2.55;;;20.00;61.80;;;;;;5079613;28;20040;-68
2023/07/30 00:54:48;;;;;;;10.70;2.17;;;20.00;62.00;;;;;;5076149;28;20527;-69
2023/07/30 00:57:15;;;;;;;9.93;3.17;;;19.90;61.80;;;;;;5076344;28;20102;-66
2023/07/30 00:59:42;;;;;;;7.30;2.05;;;19.90;61.90;;;;;;5076091;28;20071;-74
2023/07/30 01:02:08;;;;;;;11.70;3.22;;;19.90;62.00;;;;;;5076542;28;20039;-73
2023/07/30 01:04:34;;;;;;;8.88;2.63;;;19.90;62.10;;;;;;5081584;28;20192;-71
2023/07/30 01:07:00;;;;;;;8.52;2.45;;;19.80;62.00;;;;;;5071420;28;20047;-69
2023/07/30 01:09:26;;;;;;;9.65;2.35;;;19.80;62.00;;;;;;5072351;28;20040;-67
2023/07/30 01:11:54;;;;;;;11.35;2.75;;;19.80;62.10;;;;;;5099376;27;20039;-68
2023/07/30 01:14:21;;;;;;;10.93;2.83;;;19.80;62.30;;;;;;5078800;28;20562;-71
2023/07/30 01:16:46;;;;;;;9.35;2.40;;;19.80;62.40;;;;;;5081695;28;20028;-72
2023/07/30 01:19:13;;;;;;;9.30;2.50;;;19.80;62.40;;;;;;5080293;28;20365;-70
2023/07/30 01:21:39;;;;;;;8.18;2.53;;;19.80;62.50;;;;;;5081182;28;20122;-73
2023/07/30 01:24:05;;;;;;;8.43;2.38;;;19.80;62.60;;;;;;5077878;28;20016;-74
2023/07/30 01:26:47;;;;;;;11.45;3.17;;;19.70;62.50;;;;;;5080151;28;20135;-75
2023/07/30 01:29:27;;;;;;;11.85;2.70;;;19.80;62.90;;;;;;5075397;28;20060;-75
2023/07/30 01:31:57;;;;;;;10.95;3.50;;;19.70;62.70;;;;;;5079723;28;20043;-66
2023/07/30 01:34:28;;;;;;;8.82;2.40;;;19.70;62.70;;;;;;5077084;28;20211;-73
2023/07/30 01:36:55;;;;;;;12.25;2.60;;;19.70;62.80;;;;;;5080542;28;20032;-65
2023/07/30 01:39:22;;;;;;;7.57;2.10;;;19.70;62.80;;;;;;5084485;28;20032;-71
2023/07/30 01:41:48;;;;;;;9.60;2.30;;;19.80;63.00;;;;;;5082362;28;20048;-65
2023/07/30 01:44:14;;;;;;;10.82;2.90;;;19.80;63.10;;;;;;5069975;28;20084;-68
2023/07/30 01:46:40;;;;;;;7.18;2.03;;;19.70;62.90;;;;;;5083804;28;20044;-66
2023/07/30 01:49:06;;;;;;;13.13;3.35;;;19.80;63.20;;;;;;5073859;28;20552;-66
2023/07/30 01:51:32;;;;;;;11.63;2.45;;;19.80;63.30;;;;;;5091800;28;20030;-67
2023/07/30 01:53:58;;;;;;;8.55;2.53;;;19.80;63.30;;;;;;5077537;28;20028;-67
2023/07/30 01:56:24;;;;;;;9.95;2.45;;;19.80;63.30;;;;;;5096798;28;20039;-68
2023/07/30 01:58:50;;;;;;;10.85;2.63;;;19.80;63.30;;;;;;5095149;28;20083;-68
2023/07/30 02:01:16;;;;;;;9.73;2.38;;;19.80;63.40;;;;;;5093580;28;20032;-69
2023/07/30 02:03:42;;;;;;;6.15;1.70;;;19.80;63.50;;;;;;5092317;28;20031;-72
2023/07/30 02:06:08;;;;;;;8.88;2.65;;;19.70;63.30;;;;;;5094097;28;20192;-67
2023/07/30 02:08:34;;;;;;;6.35;1.55;;;19.80;63.50;;;;;;5068013;28;20039;-68
2023/07/30 02:11:00;;;;;;;10.15;2.17;;;19.80;63.60;;;;;;5095273;28;20035;-67
2023/07/30 02:13:26;;;;;;;8.30;2.38;;;19.80;63.70;;;;;;5088650;28;20033;-66
2023/07/30 02:15:52;;;;;;;10.38;2.25;;;19.70;63.50;;;;;;5095714;28;20028;-66
2023/07/30 02:18:18;;;;;;;7.82;2.03;;;19.70;63.60;;;;;;5091594;28;20107;-67
2023/07/30 02:20:44;;;;;;;9.57;2.55;;;19.80;63.80;;;;;;5101756;28;20464;-69
2023/07/30 02:23:10;;;;;;;6.93;2.38;;;19.70;63.70;;;;;;5090223;28;20024;-66
2023/07/30 02:25:37;;;;;;;7.30;2.63;;;19.80;63.80;;;;;;5095641;28;20455;-66
2023/07/30 02:28:04;;;;;;;12.38;2.65;;;19.70;63.70;;;;;;5097143;28;20032;-67
2023/07/30 02:30:30;;;;;;;7.97;3.03;;;19.70;63.80;;;;;;5102115;28;20035;-67
2023/07/30 02:32:56;;;;;;;10.75;2.72;;;19.70;63.90;;;;;;5097967;28;20028;-69
2023/07/30 02:35:22;;;;;;;8.38;2.47;;;19.70;63.80;;;;;;5112558;27;20049;-67
2023/07/30 02:37:48;;;;;;;6.10;2.13;;;19.70;63.90;;;;;;5092001;28;20125;-68
2023/07/30 02:40:14;;;;;;;7.28;2.30;;;19.70;63.90;;;;;;5101349;28;20515;-67
2023/07/30 02:42:40;;;;;;;6.30;2.03;;;19.70;63.90;;;;;;5093181;28;20071;-67
2023/07/30 02:45:06;;;;;;;8.35;2.20;;;19.70;63.90;;;;;;5086938;28;20027;-70
2023/07/30 02:47:33;;;;;;;7.85;2.35;;;19.70;63.90;;;;;;5090399;28;20051;-66
2023/07/30 02:49:58;;;;;;;6.65;2.25;;;19.70;63.90;;;;;;5080459;28;20035;-68
2023/07/30 02:52:25;;;;;;;10.30;1.88;;;19.70;64.00;;;;;;5085862;28;20099;-67
2023/07/30 02:54:51;;;;;;;7.05;2.13;;;19.70;64.00;;;;;;5084311;28;20022;-66
2023/07/30 02:57:17;;;;;;;9.80;2.63;;;19.70;64.00;;;;;;5098764;28;20492;-71
2023/07/30 02:59:44;;;;;;;8.55;3.08;;;19.70;64.10;;;;;;5095377;27;20042;-70
2023/07/30 03:02:10;;;;;;;9.30;3.17;;;19.70;64.10;;;;;;5086543;28;20040;-69
2023/07/30 03:04:36;;;;;;;10.75;2.78;;;19.70;64.10;;;;;;5090766;28;20507;-73
2023/07/30 03:07:03;;;;;;;7.85;2.33;;;19.70;64.10;;;;;;5080911;28;20051;-74
2023/07/30 03:09:28;;;;;;;5.05;1.73;;;19.70;64.20;;;;;;5091554;28;20035;-71
2023/07/30 03:11:55;;;;;;;11.40;2.38;;;19.70;64.30;;;;;;5088046;28;20028;-71
2023/07/30 03:14:20;;;;;;;8.88;3.03;;;19.60;64.10;;;;;;5082554;28;20428;-72
2023/07/30 03:16:47;;;;;;;9.52;2.25;;;19.60;64.20;;;;;;5083834;28;20043;-73
2023/07/30 03:19:14;;;;;;;9.63;2.17;;;19.60;64.20;;;;;;5074595;28;20028;-72
2023/07/30 03:21:39;;;;;;;12.82;2.85;;;19.60;64.30;;;;;;5083310;28;20063;-71
2023/07/30 03:24:06;;;;;;;10.13;2.25;;;19.60;64.30;;;;;;5082528;28;20701;-70
2023/07/30 03:26:32;;;;;;;7.85;2.20;;;19.60;64.30;;;;;;5084601;28;20688;-73
2023/07/30 03:28:58;;;;;;;7.90;1.88;;;19.60;64.40;;;;;;5079316;28;20032;-73
2023/07/30 03:31:24;;;;;;;8.63;2.38;;;19.60;64.40;;;;;;5077685;28;20419;-74
2023/07/30 03:33:50;;;;;;;8.70;2.63;;;19.60;64.50;;;;;;5100520;28;20065;-74
2023/07/30 03:36:16;;;;;;;6.65;2.28;;;19.60;64.50;;;;;;5092539;28;20716;-72
2023/07/30 03:38:42;;;;;;;6.68;2.17;;;19.60;64.50;;;;;;5092746;28;20059;-70
2023/07/30 03:41:10;;;;;;;8.77;2.15;;;19.60;64.60;;;;;;5083886;28;20031;-71
2023/07/30 03:43:36;;;;;;;8.80;2.33;;;19.60;64.60;;;;;;5076599;28;20028;-75
2023/07/30 03:46:03;;;;;;;8.13;2.40;;;19.60;64.70;;;;;;5081779;28;20487;-72
2023/07/30 03:48:29;;;;;;;6.35;2.25;;;19.60;64.70;;;;;;5091220;28;20085;-71
2023/07/30 03:50:55;;;;;;;7.18;1.73;;;19.60;64.70;;;;;;5077153;28;20028;-73
2023/07/30 03:53:22;;;;;;;8.40;2.20;;;19.60;64.80;;;;;;5082541;28;20543;-68
2023/07/30 03:55:48;;;;;;;6.32;1.98;;;19.60;64.80;;;;;;5081912;28;20035;-70
2023/07/30 03:58:14;;;;;;;6.90;2.28;;;19.60;64.80;;;;;;5084403;28;20160;-72
2023/07/30 04:00:41;;;;;;;5.53;2.30;;;19.60;64.90;;;;;;5078345;28;20032;-66
2023/07/30 04:03:07;;;;;;;9.82;2.53;;;19.60;64.90;;;;;;5083019;28;20290;-66
2023/07/30 04:05:34;;;;;;;9.82;2.58;;;19.60;64.90;;;;;;5084272;28;20040;-66
2023/07/30 04:08:00;;;;;;;7.38;2.25;;;19.60;64.80;;;;;;5070949;28;20472;-66
2023/07/30 04:10:26;;;;;;;7.53;2.08;;;19.50;64.60;;;;;;5091754;28;20036;-66
2023/07/30 04:12:52;;;;;;;8.38;2.28;;;19.50;64.70;;;;;;5075980;28;20083;-67
2023/07/30 04:15:17;;;;;;;5.50;1.50;;;19.50;64.70;;;;;;5082344;28;20028;-68
2023/07/30 04:17:43;;;;;;;10.90;3.10;;;19.50;64.70;;;;;;5083287;28;20032;-67
2023/07/30 04:20:10;;;;;;;9.90;2.42;;;19.50;64.70;;;;;;5083580;28;20051;-67
2023/07/30 04:22:36;;;;;;;6.78;2.08;;;19.50;64.70;;;;;;5100103;28;20052;-66
2023/07/30 04:25:04;;;;;;;8.48;2.47;;;19.50;64.70;;;;;;5084055;28;20531;-66
2023/07/30 04:27:30;;;;;;;7.13;2.08;;;19.50;64.80;;;;;;5077675;28;20078;-67
2023/07/30 04:29:56;;;;;;;9.90;2.83;;;19.40;64.60;;;;;;5082389;28;20036;-67
2023/07/30 04:32:22;;;;;;;9.70;3.22;;;19.40;64.60;;;;;;5080527;28;20032;-71
2023/07/30 04:34:48;;;;;;;8.65;2.90;;;19.40;64.60;;;;;;5083780;28;20071;-68
2023/07/30 04:37:14;;;;;;;8.15;3.00;;;19.50;64.80;;;;;;5097161;28;20479;-68
2023/07/30 04:39:39;;;;;;;8.23;2.35;;;19.40;64.60;;;;;;5097392;28;20104;-67
2023/07/30 04:42:06;;;;;;;7.43;2.45;;;19.40;64.60;;;;;;5085420;28;20055;-67
2023/07/30 04:44:32;;;;;;;5.80;2.03;;;19.40;64.70;;;;;;5077610;28;20128;-69
2023/07/30 04:47:09;;;;;;;7.18;1.90;;;19.40;64.80;;;;;;5088560;28;20046;-68
2023/07/30 04:49:36;;;;;;;6.53;2.40;;;19.40;64.60;;;;;;5089727;28;20027;-72
2023/07/30 04:52:03;;;;;;;5.25;1.75;;;19.40;64.50;;;;;;5083731;28;20088;-70
2023/07/30 04:54:29;;;;;;;8.02;2.13;;;19.40;64.40;;;;;;5072806;28;20038;-73
2023/07/30 04:56:55;;;;;;;7.20;2.28;;;19.40;64.40;;;;;;5083854;28;20028;-69
2023/07/30 04:59:21;;;;;;;8.50;2.88;;;19.40;64.40;;;;;;5083775;28;20040;-67
2023/07/30 05:01:47;;;;;;;6.13;1.90;;;19.30;64.20;;;;;;5096251;28;20514;-68
2023/07/30 05:04:13;;;;;;;11.30;2.67;;;19.30;64.20;;;;;;5091839;28;20074;-71
2023/07/30 05:06:38;;;;;;;8.82;2.20;;;19.30;64.30;;;;;;5072920;28;20044;-73
2023/07/30 05:09:05;;;;;;;7.82;3.13;;;19.30;64.30;;;;;;5083710;28;20032;-74
2023/07/30 05:11:31;;;;;;;7.05;2.30;;;19.30;64.40;;;;;;5096622;28;20063;-72
2023/07/30 05:13:56;;;;;;;7.03;3.00;;;19.30;64.40;;;;;;5090756;28;20431;-68
2023/07/30 05:16:22;;;;;;;9.40;2.45;;;19.30;64.40;;;;;;5066208;28;20337;-68
2023/07/30 05:18:48;;;;;;;5.43;1.95;;;19.30;64.50;;;;;;5091747;28;20058;-70
2023/07/30 05:21:15;;;;;;;8.05;2.42;;;19.30;64.60;;;;;;5080982;28;20063;-71
2023/07/30 05:23:41;;;;;;;8.68;2.42;;;19.30;64.80;;;;;;5077036;28;20118;-69
2023/07/30 05:26:07;;;;;;;9.98;2.38;;;19.30;64.90;;;;;;5086919;28;20040;-73
2023/07/30 05:28:33;;;;;;;7.43;2.70;;;19.30;65.10;;;;;;5087797;28;20133;-72
2023/07/30 05:30:59;;;;;;;10.23;2.85;;;19.30;65.20;;;;;;5079731;28;20035;-73
2023/07/30 05:33:25;;;;;;;6.53;2.53;;;19.30;65.30;;;;;;5071633;28;20337;-68
2023/07/30 05:35:51;;;;;;;9.10;2.60;;;19.40;65.50;;;;;;5096079;28;20035;-70
2023/07/30 05:38:17;;;;;;;11.10;2.78;;;19.40;65.60;;;;;;5071397;28;20056;-68
2023/07/30 05:40:43;;;;;;;8.93;2.47;;;19.40;65.60;;;;;;5082393;28;20034;-71
2023/07/30 05:43:09;;;;;;;11.85;2.95;;;19.50;66.10;;;;;;5077003;28;20033;-68
2023/07/30 05:45:35;;;;;;;7.70;2.30;;;19.50;66.60;;;;;;5074059;28;20674;-72
2023/07/30 05:48:01;;;;;;;13.20;2.70;;;19.50;67.10;;;;;;5086509;28;20052;-67
2023/07/30 05:50:27;;;;;;;9.05;3.33;;;19.60;67.60;;;;;;5082526;28;20032;-68
2023/07/30 05:52:53;;;;;;;7.35;1.83;;;19.70;68.00;;;;;;5075860;28;20039;-66
2023/07/30 05:55:19;;;;;;;8.13;2.95;;;19.80;68.40;;;;;;5079622;28;20129;-68
2023/07/30 05:57:45;;;;;;;10.25;2.72;;;19.90;68.70;;;;;;5081512;28;20460;-66
2023/07/30 06:00:11;;;;;;;6.15;2.05;;;20.00;69.40;;;;;;5078459;28;20370;-67
2023/07/30 06:02:40;;;;;;;8.00;2.22;;;20.00;68.90;;;;;;5080665;28;20032;-67
2023/07/30 06:05:07;;;;;;;6.22;2.65;;;20.10;68.80;;;;;;5079709;28;20108;-67
2023/07/30 06:07:33;;;;;;;5.82;2.28;;;20.20;68.90;;;;;;5078991;28;20040;-67
2023/07/30 06:09:59;;;;;;;7.55;2.05;;;20.30;68.90;;;;;;5080785;28;20177;-67
2023/07/30 06:12:25;;;;;;;8.00;3.22;;;20.40;68.90;;;;;;5078631;28;20119;-69
2023/07/30 06:14:51;;;;;;;11.88;2.50;;;20.40;68.80;;;;;;5081231;28;20031;-69
2023/07/30 06:17:17;;;;;;;9.73;3.80;;;20.60;69.00;;;;;;5076585;28;20489;-67
2023/07/30 06:19:43;;;;;;;7.43;2.53;;;20.60;68.90;;;;;;5082368;28;20028;-67
2023/07/30 06:22:09;;;;;;;11.32;2.60;;;20.70;68.90;;;;;;5079858;28;20562;-71
2023/07/30 06:24:35;;;;;;;12.15;3.17;;;20.80;68.90;;;;;;5072411;28;20588;-67
2023/07/30 06:27:01;;;;;;;9.45;2.38;;;20.80;68.70;;;;;;5080355;28;20277;-67
2023/07/30 06:29:27;;;;;;;7.75;2.92;;;20.90;68.60;;;;;;5088495;28;20058;-67
2023/07/30 06:31:53;;;;;;;7.88;2.92;;;21.10;68.90;;;;;;5091184;28;20043;-68
2023/07/30 06:34:20;;;;;;;7.75;2.08;;;21.10;68.80;;;;;;5078068;28;20164;-69
2023/07/30 06:36:46;;;;;;;7.32;2.47;;;21.20;68.70;;;;;;5093360;28;20461;-69
2023/07/30 06:39:12;;;;;;;6.00;2.08;;;21.30;68.70;;;;;;5079435;28;20028;-68
2023/07/30 06:41:38;;;;;;;9.77;2.35;;;21.40;68.50;;;;;;5081853;28;20142;-69
2023/07/30 06:44:04;;;;;;;8.80;2.00;;;21.40;68.30;;;;;;5074656;28;20036;-69
2023/07/30 06:46:30;;;;;;;10.77;3.67;;;21.50;68.20;;;;;;5080266;28;20592;-70
2023/07/30 06:48:56;;;;;;;8.63;2.28;;;21.50;67.90;;;;;;5080258;28;20081;-68
2023/07/30 06:51:25;;;;;;;9.10;2.20;;;21.50;67.70;;;;;;5082006;28;20129;-73
2023/07/30 06:53:51;;;;;;;13.35;2.78;;;21.50;67.50;;;;;;5078867;28;20051;-68
2023/07/30 06:56:17;;;;;;;5.30;1.95;;;21.50;67.50;;;;;;5077513;28;20438;-68
2023/07/30 06:58:43;;;;;;;10.30;2.78;;;21.60;67.70;;;;;;5078698;28;20541;-68
2023/07/30 07:01:08;;;;;;;10.32;2.08;;;21.60;67.40;;;;;;5079975;28;20101;-67
2023/07/30 07:03:34;;;;;;;9.73;2.58;;;21.60;67.20;;;;;;5081806;28;20126;-70
2023/07/30 07:06:01;;;;;;;9.52;2.65;;;21.70;67.20;;;;;;5076816;28;20036;-68
2023/07/30 07:08:27;;;;;;;4.85;1.83;;;21.60;67.00;;;;;;5070084;28;20043;-69
2023/07/30 07:10:53;;;;;;;7.50;1.98;;;21.60;67.00;;;;;;5091745;28;20032;-68
2023/07/30 07:13:19;;;;;;;7.95;2.22;;;21.60;67.00;;;;;;5091507;28;20146;-68
2023/07/30 07:15:45;;;;;;;5.43;2.35;;;21.60;67.00;;;;;;5075392;28;20051;-68
2023/07/30 07:18:11;;;;;;;8.52;2.70;;;21.70;67.10;;;;;;5078079;28;20525;-68
2023/07/30 07:20:37;;;;;;;5.90;2.10;;;21.80;67.00;;;;;;5074339;28;20461;-67
2023/07/30 07:23:04;;;;;;;9.80;2.58;;;21.90;66.80;;;;;;5084324;28;20119;-67
2023/07/30 07:25:30;;;;;;;4.63;1.80;;;22.10;66.80;;;;;;5088509;28;20032;-67
2023/07/30 07:27:55;;;;;;;5.72;2.47;;;22.40;66.50;;;;;;5088785;28;20433;-69
2023/07/30 07:30:21;;;;;;;6.05;2.13;;;22.60;66.30;;;;;;5092581;28;20031;-70
2023/07/30 07:32:50;;;;;;;5.85;1.92;;;22.70;66.00;;;;;;5083219;28;20392;-73
2023/07/30 07:35:18;;;;;;;5.13;2.35;;;22.90;65.80;;;;;;5081325;28;20052;-71
2023/07/30 07:37:44;;;;;;;4.72;1.92;;;23.00;65.50;;;;;;5081083;28;20040;-70
2023/07/30 07:40:10;;;;;;;7.18;1.67;;;23.00;65.20;;;;;;5086141;28;20529;-70
2023/07/30 07:42:38;;;;;;;4.25;1.83;;;22.90;65.00;;;;;;5079904;28;20040;-68
2023/07/30 07:45:05;;;;;;;5.30;2.80;;;22.90;65.10;;;;;;5077066;28;20468;-67
2023/07/30 07:47:31;;;;;;;7.82;2.25;;;22.80;65.00;;;;;;5079010;28;20588;-67
2023/07/30 07:49:57;;;;;;;4.18;1.75;;;22.80;65.10;;;;;;5081431;28;20437;-69
2023/07/30 07:52:23;;;;;;;8.00;2.38;;;22.70;65.00;;;;;;5072747;28;20040;-68
2023/07/30 07:54:49;;;;;;;7.40;2.80;;;22.70;65.00;;;;;;5076573;28;20277;-67
2023/07/30 07:57:15;;;;;;;6.35;2.60;;;22.70;65.10;;;;;;5075032;28;20815;-68
2023/07/30 07:59:44;;;;;;;4.90;2.13;;;22.70;65.10;;;;;;5074683;28;20442;-69
2023/07/30 08:02:13;;;;;;;4.78;1.52;;;22.80;65.30;;;;;;5077532;28;20507;-69
2023/07/30 08:04:39;;;;;;;5.45;1.92;;;22.80;65.10;;;;;;5082438;28;20097;-70
2023/07/30 08:07:05;;;;;;;7.43;1.92;;;22.80;65.10;;;;;;5074331;28;20040;-67
2023/07/30 08:09:31;;;;;;;5.35;2.20;;;22.80;65.00;;;;;;5081568;28;20080;-68
2023/07/30 08:11:58;;;;;;;3.20;1.48;;;22.80;64.90;;;;;;5079162;28;20823;-68
2023/07/30 08:14:24;;;;;;;3.38;1.80;;;22.80;65.00;;;;;;5079477;28;20020;-67
2023/07/30 08:16:51;;;;;;;6.05;2.05;;;22.80;65.00;;;;;;5083404;28;20059;-69
2023/07/30 08:19:17;;;;;;;7.57;2.38;;;22.80;65.00;;;;;;5079182;28;20040;-68
2023/07/30 08:21:43;;;;;;;5.65;2.08;;;22.80;65.00;;;;;;5077339;28;20028;-68
2023/07/30 08:24:08;;;;;;;10.02;3.50;;;22.70;64.90;;;;;;5069826;28;20048;-68
2023/07/30 08:26:34;;;;;;;5.53;2.13;;;22.70;64.90;;;;;;5079174;28;20048;-67
2023/07/30 08:29:00;;;;;;;6.00;2.08;;;22.70;65.00;;;;;;5077643;28;20200;-68
2023/07/30 08:31:26;;;;;;;4.07;2.00;;;22.70;65.00;;;;;;5075231;28;20560;-69
2023/07/30 08:33:52;;;;;;;5.13;1.85;;;22.60;65.00;;;;;;5070973;28;20045;-69
2023/07/30 08:36:19;;;;;;;5.65;2.03;;;22.60;65.00;;;;;;5062140;28;20036;-67
2023/07/30 08:38:45;;;;;;;4.65;1.60;;;22.60;65.10;;;;;;5079982;28;20086;-68
2023/07/30 08:41:10;;;;;;;4.50;2.10;;;22.60;65.10;;;;;;5071501;28;20028;-68
2023/07/30 08:43:37;;;;;;;6.25;2.47;;;22.60;65.00;;;;;;5070642;28;20039;-68
2023/07/30 08:46:03;;;;;;;4.63;2.08;;;22.80;65.30;;;;;;5076091;28;20096;-68
2023/07/30 08:48:29;;;;;;;6.95;2.42;;;22.80;65.30;;;;;;5086791;28;20403;-69
2023/07/30 08:50:57;;;;;;;3.90;1.58;;;22.80;65.30;;;;;;5065588;28;20036;-70
2023/07/30 08:53:26;;;;;;;4.28;1.55;;;22.80;65.20;;;;;;5076883;28;20028;-67
2023/07/30 08:55:55;;;;;;;5.90;2.63;;;22.90;65.30;;;;;;5080772;28;20464;-68
2023/07/30 08:58:25;;;;;;;29.70;9.88;;;23.00;65.50;;;;;;5074394;28;20096;-66
2023/07/30 09:00:53;;;;;;;73.72;36.97;;;23.00;65.40;;;;;;5075488;28;20060;-68
2023/07/30 09:03:20;;;;;;;198.55;57.17;;;23.10;65.50;;;;;;5076972;28;20142;-67
2023/07/30 09:05:47;;;;;;;101.63;37.75;;;23.20;65.70;;;;;;5075582;28;20070;-67
2023/07/30 09:08:14;;;;;;;81.57;30.38;;;23.30;66.10;;;;;;5063231;28;20041;-67
2023/07/30 09:10:40;;;;;;;68.75;28.08;;;23.40;66.50;;;;;;5076235;28;20050;-70
2023/07/30 09:13:07;;;;;;;67.93;26.00;;;23.50;66.50;;;;;;5078486;28;20036;-68
2023/07/30 09:15:37;;;;;;;50.80;22.52;;;23.70;66.60;;;;;;5075048;28;20039;-67
2023/07/30 09:18:04;;;;;;;48.95;20.70;;;23.90;66.50;;;;;;5076870;28;20369;-72
2023/07/30 09:20:41;;;;;;;41.03;17.98;;;24.10;66.40;;;;;;5064263;28;20125;-67
2023/07/30 09:23:08;;;;;;;36.85;16.35;;;24.20;66.20;;;;;;5075057;28;20036;-70
2023/07/30 09:25:35;;;;;;;36.63;16.23;;;24.30;66.10;;;;;;5064054;28;20028;-67
2023/07/30 09:28:02;;;;;;;28.20;12.48;;;24.40;66.10;;;;;;5076388;28;20070;-69
2023/07/30 09:30:28;;;;;;;21.30;10.95;;;24.50;66.20;;;;;;5067590;28;20508;-68
2023/07/30 09:32:56;;;;;;;23.17;9.95;;;24.60;66.00;;;;;;5083405;28;20035;-67
2023/07/30 09:35:24;;;;;;;24.80;9.40;;;24.90;66.10;;;;;;5071491;28;20040;-67
2023/07/30 09:37:57;;;;;;;13.88;7.18;;;25.10;65.80;;;;;;5072071;28;20637;-67
2023/07/30 09:40:32;;;;;;;13.60;7.25;;;25.20;65.50;;;;;;5090637;28;20128;-68
2023/07/30 09:42:58;;;;;;;12.20;5.40;;;25.40;65.20;;;;;;5073798;28;20036;-71
2023/07/30 09:45:25;;;;;;;12.15;5.25;;;25.50;65.00;;;;;;5065984;28;20043;-72
2023/07/30 09:47:53;;;;;;;10.88;4.82;;;25.60;64.80;;;;;;5074658;28;20040;-74
2023/07/30 09:50:19;;;;;;;11.63;5.30;;;25.70;64.60;;;;;;5071407;28;20028;-68
2023/07/30 09:52:46;;;;;;;5.80;3.75;;;25.80;64.50;;;;;;5061345;28;20555;-73
2023/07/30 09:55:12;;;;;;;7.57;3.45;;;25.90;64.20;;;;;;5056335;28;20134;-78
2023/07/30 09:57:39;;;;;;;10.43;3.22;;;26.00;63.90;;;;;;5074319;28;20028;-67
2023/07/30 10:00:07;;;;;;;8.57;3.05;;;26.00;63.60;;;;;;5071957;28;20032;-73
2023/07/30 10:02:38;;;;;;;8.00;3.03;;;26.10;63.50;;;;;;5077292;28;20887;-72
2023/07/30 10:05:09;;;;;;;6.15;2.95;;;26.10;63.20;;;;;;5076359;28;20442;-73
2023/07/30 10:07:38;;;;;;;7.70;3.65;;;26.10;63.10;;;;;;5068397;28;20048;-72
2023/07/30 10:10:05;;;;;;;4.13;2.33;;;26.10;62.90;;;;;;5080779;28;20082;-68
2023/07/30 10:12:33;;;;;;;4.38;1.95;;;26.10;62.80;;;;;;5087241;28;20114;-70
2023/07/30 10:15:01;;;;;;;4.50;2.28;;;26.10;62.80;;;;;;5082058;28;20024;-69
2023/07/30 10:17:28;;;;;;;3.88;2.38;;;26.10;63.00;;;;;;5089677;28;20024;-71
2023/07/30 10:19:54;;;;;;;4.50;2.47;;;26.10;62.70;;;;;;5080601;28;20087;-72
2023/07/30 10:22:24;;;;;;;6.63;2.60;;;26.10;62.60;;;;;;5079343;28;20484;-71
2023/07/30 10:25:12;;;;;;;4.90;2.33;;;26.10;62.60;;;;;;5076170;28;20077;-73
2023/07/30 10:27:40;;;;;;;5.22;1.95;;;26.00;62.50;;;;;;5076097;28;20051;-71
2023/07/30 10:30:14;;;;;;;4.70;1.77;;;26.00;62.70;;;;;;5078575;28;20031;-76
2023/07/30 10:32:55;;;;;;;3.42;1.60;;;25.80;62.70;;;;;;5073588;28;20035;-71
2023/07/30 10:35:46;;;;;;;1.80;1.25;;;25.80;62.90;;;;;;5063627;28;20044;-71
2023/07/30 10:38:27;;;;;;;3.67;1.70;;;25.70;63.10;;;;;;5075085;28;20027;-70
2023/07/30 10:41:12;;;;;;;3.90;1.60;;;25.60;63.30;;;;;;5075706;28;20063;-71
2023/07/30 10:43:47;;;;;;;2.78;1.25;;;25.50;63.40;;;;;;5076545;28;20024;-71
2023/07/30 10:46:18;;;;;;;2.33;1.77;;;25.40;63.60;;;;;;5080387;28;20044;-70
2023/07/30 10:48:48;;;;;;;3.05;1.38;;;25.40;63.80;;;;;;5087311;27;20111;-68
2023/07/30 10:51:17;;;;;;;2.13;1.17;;;25.40;63.80;;;;;;5079594;28;20565;-69
2023/07/30 10:53:44;;;;;;;1.92;1.08;;;25.40;63.90;;;;;;5077312;28;20042;-67
2023/07/30 10:56:11;;;;;;;3.13;1.40;;;25.30;63.90;;;;;;5081196;28;20024;-67
2023/07/30 10:58:38;;;;;;;1.95;1.00;;;25.30;63.90;;;;;;5078721;28;20450;-66
2023/07/30 11:01:08;;;;;;;2.33;0.80;;;25.30;64.00;;;;;;5082634;28;20103;-68
2023/07/30 11:03:36;;;;;;;1.30;0.70;;;25.30;64.10;;;;;;5074492;28;20057;-68
2023/07/30 11:06:03;;;;;;;2.03;1.27;;;25.30;64.10;;;;;;5083785;28;20063;-70
2023/07/30 11:08:47;;;;;;;1.15;0.73;;;25.20;64.10;;;;;;5071670;28;20036;-67
2023/07/30 11:11:16;;;;;;;1.63;0.90;;;25.10;64.20;;;;;;5083365;28;20067;-70
2023/07/30 11:13:47;;;;;;;2.53;1.08;;;25.10;64.40;;;;;;5075431;28;20047;-70
2023/07/30 11:16:14;;;;;;;4.03;1.15;;;25.10;64.50;;;;;;5077732;28;20063;-67
2023/07/30 11:18:42;;;;;;;3.47;1.70;;;25.10;64.70;;;;;;5077461;28;20036;-67
2023/07/30 11:21:10;;;;;;;3.50;1.20;;;25.10;64.90;;;;;;5071581;28;20899;-66
2023/07/30 11:23:38;;;;;;;3.63;1.58;;;25.00;65.10;;;;;;5076632;28;20032;-69
2023/07/30 11:26:06;;;;;;;1.83;1.08;;;25.00;65.30;;;;;;5071094;28;20040;-68
2023/07/30 11:28:33;;;;;;;4.72;1.10;;;25.00;65.50;;;;;;5079282;28;20515;-68
2023/07/30 11:31:05;;;;;;;5.45;1.08;;;25.00;65.60;;;;;;5081006;28;20036;-68
2023/07/30 11:33:31;;;;;;;4.72;1.00;;;25.10;65.70;;;;;;5077151;28;20043;-68
2023/07/30 11:36:01;;;;;;;11.00;1.75;;;25.00;65.60;;;;;;5075087;28;20595;-70
2023/07/30 11:38:27;;;;;;;2.67;1.42;;;25.00;65.60;;;;;;5074714;28;20535;-74
2023/07/30 11:40:54;;;;;;;2.83;1.05;;;25.00;65.80;;;;;;5084154;28;20036;-69
2023/07/30 11:43:21;;;;;;;5.85;1.58;;;25.00;66.00;;;;;;5073048;28;20459;-67
2023/07/30 11:45:48;;;;;;;6.30;1.60;;;25.00;66.30;;;;;;5069061;28;20033;-67
2023/07/30 11:48:14;;;;;;;3.10;1.80;;;25.00;66.60;;;;;;5082958;28;20040;-67
2023/07/30 11:50:50;;;;;;;3.40;1.58;;;24.90;66.60;;;;;;5090819;28;20027;-71
2023/07/30 11:53:18;;;;;;;3.65;1.25;;;25.00;67.10;;;;;;5073053;28;20074;-71
2023/07/30 11:55:44;;;;;;;2.25;1.02;;;24.90;67.10;;;;;;5080495;28;20534;-72
2023/07/30 11:58:12;;;;;;;5.07;2.60;;;24.80;67.20;;;;;;5071510;28;20028;-76
2023/07/30 12:00:43;;;;;;;4.13;2.78;;;24.80;67.60;;;;;;5080127;28;20484;-72
2023/07/30 12:03:14;;;;;;;3.17;2.17;;;24.70;67.90;;;;;;5077585;28;20043;-69
2023/07/30 12:05:40;;;;;;;6.10;5.50;;;24.70;68.10;;;;;;5077300;28;20051;-70
2023/07/30 12:08:13;;;;;;;10.02;9.02;;;24.70;68.60;;;;;;5067326;28;20051;-69
2023/07/30 12:10:43;;;;;;;12.02;10.48;;;24.60;69.10;;;;;;5082142;28;20035;-75
2023/07/30 12:13:28;;;;;;;12.45;7.03;;;24.70;69.70;;;;;;5075499;28;20539;-74
2023/07/30 12:15:54;;;;;;;6.47;5.25;;;24.60;70.00;;;;;;5078591;28;20455;-70
2023/07/30 12:18:23;;;;;;;6.65;5.03;;;24.60;70.10;;;;;;5076540;28;20039;-70
2023/07/30 12:20:50;;;;;;;7.50;3.95;;;24.60;70.50;;;;;;5064903;28;20617;-69
2023/07/30 12:23:17;;;;;;;7.60;3.90;;;24.60;70.80;;;;;;5064408;28;20040;-69
2023/07/30 12:25:43;;;;;;;6.65;3.55;;;24.60;70.90;;;;;;5063656;28;20043;-72
2023/07/30 12:28:09;;;;;;;5.72;2.83;;;24.60;70.80;;;;;;5076847;28;20051;-69
2023/07/30 12:30:36;;;;;;;4.78;2.60;;;24.60;70.80;;;;;;5071168;28;20330;-72
2023/07/30 12:33:03;;;;;;;4.50;2.55;;;24.50;70.50;;;;;;5070626;28;20390;-70
2023/07/30 12:35:30;;;;;;;5.22;2.80;;;24.50;70.40;;;;;;5080528;28;20074;-70
2023/07/30 12:37:57;;;;;;;6.32;2.47;;;24.50;70.30;;;;;;5075616;28;20517;-72
2023/07/30 12:40:23;;;;;;;5.43;2.15;;;24.50;70.20;;;;;;5082681;28;20483;-73
2023/07/30 12:42:49;;;;;;;9.07;2.78;;;24.50;70.10;;;;;;5078236;28;20062;-69